Time;durP1;ratioP1;P1;durP2;ratioP2;P2;SDS_P1;SDS_P2;PMS_P1;PMS_P2;Temp;Humidity;BMP_temperature;BMP_pressure;BME280_temperature;BME280_humidity;BME280_pressure;Samples;Min_cycle;Max_cycle;Signal;HPM_P1;HPM_P2
2023/12/04 00:01:26;;;;;;;22.80;11.55;;;;;;;-1.74;100.00;101191.88;6097271;23;20021;-80
2023/12/04 00:03:53;;;;;;;24.77;12.55;;;;;;;-1.70;100.00;101182.63;6093538;23;20063;-80
2023/12/04 00:06:19;;;;;;;21.63;11.35;;;;;;;-1.71;99.55;101186.00;6121907;23;20029;-80
2023/12/04 00:08:46;;;;;;;20.90;10.90;;;;;;;-1.75;99.72;101190.09;6097678;23;20448;-80
2023/12/04 00:11:13;;;;;;;19.50;10.10;;;;;;;-1.68;100.00;101184.47;6120994;23;20021;-80
2023/12/04 00:13:39;;;;;;;18.95;10.98;;;;;;;-1.71;100.00;101186.91;6121656;23;20036;-81
2023/12/04 00:16:06;;;;;;;21.42;10.38;;;;;;;-1.60;100.00;101178.81;6096332;23;20029;-81
2023/12/04 00:18:33;;;;;;;22.73;10.65;;;;;;;-1.75;100.00;101173.81;6098028;23;20032;-81
2023/12/04 00:20:59;;;;;;;20.15;10.07;;;;;;;-1.72;100.00;101169.72;6120821;23;20032;-81
2023/12/04 00:23:26;;;;;;;19.02;10.50;;;;;;;-1.65;100.00;101175.19;6120996;23;20104;-81
2023/12/04 00:25:53;;;;;;;18.05;10.60;;;;;;;-1.73;100.00;101172.22;6097887;23;20473;-81
2023/12/04 00:28:19;;;;;;;20.13;11.02;;;;;;;-1.63;100.00;101164.19;6121477;23;20026;-81
2023/12/04 00:30:46;;;;;;;20.40;11.73;;;;;;;-1.68;100.00;101153.66;6097638;23;20064;-80
2023/12/04 00:33:12;;;;;;;21.60;10.95;;;;;;;-1.65;100.00;101155.50;6120769;23;20025;-80
2023/12/04 00:35:39;;;;;;;24.90;12.05;;;;;;;-1.70;100.00;101149.25;6122057;23;20026;-82
2023/12/04 00:38:05;;;;;;;22.02;11.95;;;;;;;-1.74;100.00;101139.66;6121096;23;20022;-79
2023/12/04 00:40:32;;;;;;;16.10;10.70;;;;;;;-1.76;100.00;101139.59;6121878;23;20140;-80
2023/12/04 00:42:59;;;;;;;22.15;10.68;;;;;;;-1.75;100.00;101131.06;6122968;23;20116;-79
2023/12/04 00:45:25;;;;;;;17.50;9.02;;;;;;;-1.73;100.00;101126.03;6097178;23;20025;-81
2023/12/04 00:47:52;;;;;;;19.27;9.15;;;;;;;-1.75;100.00;101133.63;6097656;23;20025;-80
2023/12/04 00:50:18;;;;;;;15.80;9.27;;;;;;;-1.73;100.00;101115.75;6096112;23;20092;-80
2023/12/04 00:52:45;;;;;;;17.05;9.52;;;;;;;-1.85;100.00;101118.63;6120769;23;20014;-79
2023/12/04 00:55:12;;;;;;;19.75;10.98;;;;;;;-1.79;100.00;101105.19;6119391;23;20021;-79
2023/12/04 00:57:38;;;;;;;14.90;9.40;;;;;;;-1.79;100.00;101095.78;6119462;23;20096;-80
2023/12/04 01:00:06;;;;;;;19.88;10.93;;;;;;;-1.76;100.00;101097.63;6119175;23;20471;-80
2023/12/04 01:02:33;;;;;;;23.25;11.60;;;;;;;-1.76;100.00;101092.50;6097619;23;20025;-79
2023/12/04 01:04:59;;;;;;;20.77;10.10;;;;;;;-1.71;100.00;101085.91;6096694;23;20344;-81
2023/12/04 01:07:25;;;;;;;19.67;9.73;;;;;;;-1.76;100.00;101089.94;6096595;23;20053;-79
2023/12/04 01:09:52;;;;;;;19.27;10.68;;;;;;;-1.71;100.00;101083.31;6116695;23;20028;-80
2023/12/04 01:12:19;;;;;;;22.73;9.70;;;;;;;-1.68;100.00;101079.22;6121398;23;20069;-80
2023/12/04 01:14:45;;;;;;;18.80;11.13;;;;;;;-1.64;100.00;101075.13;6098270;23;20343;-80
2023/12/04 01:17:12;;;;;;;17.95;10.05;;;;;;;-1.70;100.00;101073.13;6120586;23;20030;-79
2023/12/04 01:19:38;;;;;;;18.23;9.45;;;;;;;-1.71;100.00;101075.63;6121190;23;20177;-80
2023/12/04 01:22:06;;;;;;;19.85;10.73;;;;;;;-1.69;100.00;101062.06;6097265;23;20024;-80
2023/12/04 01:24:33;;;;;;;21.33;10.35;;;;;;;-1.64;100.00;101064.84;6122356;23;20048;-80
2023/12/04 01:27:00;;;;;;;15.90;9.43;;;;;;;-1.68;100.00;101062.97;6097772;23;20032;-80
2023/12/04 01:29:26;;;;;;;18.15;9.48;;;;;;;-1.71;100.00;101056.00;6121114;23;20021;-79
2023/12/04 01:31:58;;;;;;;17.20;9.52;;;;;;;-1.64;100.00;101044.31;6122227;23;20469;-79
2023/12/04 01:34:29;;;;;;;17.50;9.65;;;;;;;-1.64;100.00;101058.81;6097177;23;20040;-80
2023/12/04 01:36:54;;;;;;;16.20;8.90;;;;;;;-1.63;100.00;101058.03;6095992;23;20443;-80
2023/12/04 01:39:21;;;;;;;17.52;9.18;;;;;;;-1.68;100.00;101051.00;6097489;23;20032;-80
2023/12/04 01:41:47;;;;;;;19.75;10.98;;;;;;;-1.63;100.00;101040.06;6072846;23;20701;-79
2023/12/04 01:44:14;;;;;;;18.52;8.88;;;;;;;-1.54;100.00;101040.47;6121628;23;20526;-80
2023/12/04 01:46:40;;;;;;;23.33;10.73;;;;;;;-1.56;100.00;101029.28;6120564;23;20228;-80
2023/12/04 01:49:07;;;;;;;21.13;9.50;;;;;;;-1.64;100.00;101033.16;6121236;23;20021;-79
2023/12/04 01:51:34;;;;;;;16.98;8.95;;;;;;;-1.65;100.00;101027.16;6122499;23;20089;-80
2023/12/04 01:54:04;;;;;;;16.40;8.73;;;;;;;-1.64;100.00;101022.88;6098568;23;20031;-81
2023/12/04 01:56:31;;;;;;;23.40;9.88;;;;;;;-1.73;100.00;101021.66;6120615;23;20025;-80
2023/12/04 01:58:57;;;;;;;19.02;9.48;;;;;;;-1.73;100.00;101016.53;6096974;23;20018;-80
2023/12/04 02:01:25;;;;;;;18.83;9.57;;;;;;;-1.80;100.00;101011.91;6120889;23;20017;-80
2023/12/04 02:03:52;;;;;;;16.02;8.40;;;;;;;-1.80;100.00;101013.59;6122711;23;20029;-79
2023/12/04 02:06:19;;;;;;;15.93;8.85;;;;;;;-1.79;100.00;101016.22;6122627;23;20017;-80
2023/12/04 02:08:48;;;;;;;20.45;10.52;;;;;;;-1.77;100.00;101017.19;6123984;23;20025;-80
2023/12/04 02:11:14;;;;;;;17.77;9.65;;;;;;;-1.86;100.00;101009.94;6097647;23;20021;-80
2023/12/04 02:13:41;;;;;;;22.48;10.57;;;;;;;-1.93;100.00;101013.03;6123957;23;20081;-80
2023/12/04 02:16:11;;;;;;;16.38;8.98;;;;;;;-1.93;100.00;101012.13;6093678;23;20036;-79
2023/12/04 02:18:38;;;;;;;19.13;10.30;;;;;;;-1.81;100.00;100999.91;6123732;23;20025;-79
2023/12/04 02:21:05;;;;;;;19.13;8.68;;;;;;;-1.89;100.00;100990.94;6122615;23;20080;-81
2023/12/04 02:23:32;;;;;;;15.63;8.43;;;;;;;-1.79;100.00;100994.84;6121194;23;20029;-80
2023/12/04 02:26:11;;;;;;;16.13;8.52;;;;;;;-1.81;100.00;100994.78;6122156;23;20036;-80
2023/12/04 02:28:39;;;;;;;18.45;9.43;;;;;;;-1.77;100.00;100990.63;6099077;23;20431;-80
2023/12/04 02:31:09;;;;;;;17.02;9.43;;;;;;;-1.72;100.00;100990.06;6122319;23;20018;-80
2023/12/04 02:33:36;;;;;;;15.45;7.90;;;;;;;-1.72;100.00;100986.59;6123929;23;20036;-81
2023/12/04 02:36:06;;;;;;;18.13;8.32;;;;;;;-1.68;100.00;100989.38;6097895;23;20026;-81
2023/12/04 02:38:33;;;;;;;18.27;10.02;;;;;;;-1.62;100.00;100981.06;6098144;23;20036;-80
2023/12/04 02:40:59;;;;;;;16.05;9.15;;;;;;;-1.60;100.00;100976.00;6123212;23;20108;-81
2023/12/04 02:43:26;;;;;;;17.77;10.30;;;;;;;-1.56;100.00;100973.66;6098065;23;20064;-80
2023/12/04 02:45:53;;;;;;;19.63;9.63;;;;;;;-1.55;100.00;100965.16;6123014;23;20029;-80
2023/12/04 02:48:19;;;;;;;17.95;9.20;;;;;;;-1.58;100.00;100970.13;6121498;23;20098;-80
2023/12/04 02:50:46;;;;;;;20.92;9.05;;;;;;;-1.57;100.00;100960.75;6122978;23;20108;-80
2023/12/04 02:53:12;;;;;;;19.08;9.35;;;;;;;-1.54;100.00;100968.59;6122790;23;20025;-80
2023/12/04 02:55:39;;;;;;;15.68;9.32;;;;;;;-1.61;100.00;100957.16;6097891;23;20029;-79
2023/12/04 02:58:05;;;;;;;17.17;9.52;;;;;;;-1.57;100.00;100950.50;6095687;23;20084;-81
2023/12/04 03:00:32;;;;;;;13.98;7.72;;;;;;;-1.54;100.00;100951.53;6121703;23;20347;-80
2023/12/04 03:02:58;;;;;;;20.08;9.88;;;;;;;-1.48;100.00;100939.75;6097330;23;20025;-80
2023/12/04 03:05:25;;;;;;;13.98;9.15;;;;;;;-1.48;100.00;100934.63;6095708;23;20025;-81
2023/12/04 03:07:51;;;;;;;18.60;9.82;;;;;;;-1.42;100.00;100929.75;6096916;23;20506;-80
2023/12/04 03:10:18;;;;;;;20.58;10.48;;;;;;;-1.39;100.00;100937.59;6097879;23;20032;-80
2023/12/04 03:12:44;;;;;;;19.23;9.00;;;;;;;-1.36;100.00;100933.44;6123115;23;20028;-80
2023/12/04 03:15:12;;;;;;;16.00;8.50;;;;;;;-1.37;100.00;100926.59;6096808;23;20117;-80
2023/12/04 03:17:39;;;;;;;15.25;8.40;;;;;;;-1.33;100.00;100927.56;6120924;23;20021;-80
2023/12/04 03:20:08;;;;;;;15.55;8.70;;;;;;;-1.31;100.00;100933.66;6092748;23;20362;-80
2023/12/04 03:22:37;;;;;;;18.25;10.02;;;;;;;-1.31;100.00;100932.81;6096946;23;20021;-79
2023/12/04 03:25:03;;;;;;;17.50;9.43;;;;;;;-1.21;100.00;100932.41;6097254;23;20029;-80
2023/12/04 03:27:30;;;;;;;14.60;8.60;;;;;;;-1.25;100.00;100921.09;6097155;23;20499;-80
2023/12/04 03:29:56;;;;;;;13.23;7.95;;;;;;;-1.26;100.00;100918.47;6096827;23;20022;-80
2023/12/04 03:32:23;;;;;;;17.50;8.45;;;;;;;-1.22;100.00;100917.78;6097482;23;20033;-79
2023/12/04 03:34:50;;;;;;;17.63;8.63;;;;;;;-1.19;100.00;100917.91;6097472;23;20509;-80
2023/12/04 03:37:16;;;;;;;17.25;9.50;;;;;;;-1.21;100.00;100916.97;6119489;23;20033;-79
2023/12/04 03:39:43;;;;;;;18.77;9.48;;;;;;;-1.18;100.00;100907.69;6096646;23;20217;-81
2023/12/04 03:42:11;;;;;;;19.05;10.05;;;;;;;-1.15;100.00;100903.50;6095096;23;20021;-79
2023/12/04 03:44:38;;;;;;;16.08;7.68;;;;;;;-1.16;100.00;100902.66;6096595;23;20124;-79
2023/12/04 03:47:04;;;;;;;16.10;8.90;;;;;;;-1.20;100.00;100893.03;6119339;23;20483;-80
2023/12/04 03:49:31;;;;;;;14.40;7.63;;;;;;;-1.19;100.00;100895.69;6096047;23;20025;-80
2023/12/04 03:51:57;;;;;;;14.50;8.35;;;;;;;-1.23;100.00;100888.63;6121140;23;20044;-79
2023/12/04 03:54:24;;;;;;;16.30;7.88;;;;;;;-1.27;100.00;100881.63;6121669;23;20014;-79
2023/12/04 03:56:50;;;;;;;17.83;8.82;;;;;;;-1.22;100.00;100874.13;6120728;23;20028;-79
2023/12/04 03:59:17;;;;;;;15.45;8.65;;;;;;;-1.25;100.00;100868.84;6096373;23;20051;-80
2023/12/04 04:01:43;;;;;;;16.65;9.48;;;;;;;-1.23;100.00;100873.22;6095598;23;20104;-80
2023/12/04 04:04:12;;;;;;;13.77;8.25;;;;;;;-1.19;100.00;100876.81;6097052;23;20034;-79
2023/12/04 04:06:39;;;;;;;15.48;8.82;;;;;;;-1.22;100.00;100858.72;6120789;23;20053;-79
2023/12/04 04:09:06;;;;;;;18.15;9.15;;;;;;;-1.18;100.00;100858.88;6095759;23;20111;-79
2023/12/04 04:11:32;;;;;;;19.63;10.38;;;;;;;-1.30;100.00;100848.09;6094795;23;20057;-80
2023/12/04 04:13:59;;;;;;;16.02;8.32;;;;;;;-1.25;100.00;100844.03;6120875;23;20056;-79
2023/12/04 04:16:25;;;;;;;18.10;9.52;;;;;;;-1.24;100.00;100845.81;6094680;23;20017;-80
2023/12/04 04:18:52;;;;;;;14.43;8.57;;;;;;;-1.16;100.00;100843.56;6116798;23;20092;-80
2023/12/04 04:21:18;;;;;;;16.27;8.43;;;;;;;-1.14;100.00;100836.78;6093838;23;20026;-79
2023/12/04 04:23:45;;;;;;;17.65;8.77;;;;;;;-1.12;99.50;100837.72;6095130;23;20029;-80
2023/12/04 04:26:11;;;;;;;15.02;8.18;;;;;;;-1.12;99.14;100837.72;6120264;23;20055;-80
2023/12/04 04:28:38;;;;;;;18.02;9.10;;;;;;;-1.08;99.56;100834.47;6094879;23;20445;-80
2023/12/04 04:31:05;;;;;;;19.13;8.60;;;;;;;-1.06;99.47;100837.09;6120228;23;20031;-80
2023/12/04 04:33:31;;;;;;;16.70;8.75;;;;;;;-1.02;99.29;100833.84;6095184;23;20059;-80
2023/12/04 04:35:58;;;;;;;14.90;8.20;;;;;;;-1.00;98.94;100837.34;6096227;23;20025;-80
2023/12/04 04:38:24;;;;;;;15.70;8.02;;;;;;;-0.98;98.22;100817.72;6119441;23;20394;-80
2023/12/04 04:40:52;;;;;;;16.00;8.25;;;;;;;-0.97;97.83;100824.63;6119610;23;20077;-80
2023/12/04 04:43:20;;;;;;;15.40;8.75;;;;;;;-0.93;97.73;100825.63;6095528;23;20026;-80
2023/12/04 04:45:47;;;;;;;11.95;6.82;;;;;;;-0.96;97.31;100828.09;6120015;23;20439;-81
2023/12/04 04:48:14;;;;;;;14.02;7.60;;;;;;;-0.91;97.36;100816.28;6093968;23;20025;-80
2023/12/04 04:50:40;;;;;;;12.02;7.60;;;;;;;-0.89;96.75;100823.22;6119611;23;20022;-80
2023/12/04 04:53:07;;;;;;;14.70;8.40;;;;;;;-0.89;94.83;100822.38;6095889;23;20021;-80
2023/12/04 04:55:33;;;;;;;12.70;7.35;;;;;;;-0.85;95.61;100821.66;6143282;23;20770;-80
2023/12/04 04:58:00;;;;;;;12.57;8.65;;;;;;;-0.85;95.73;100820.00;6094185;23;20473;-80
2023/12/04 05:00:26;;;;;;;15.25;8.38;;;;;;;-0.87;96.04;100810.47;6093227;23;20462;-79
2023/12/04 05:02:53;;;;;;;12.38;7.07;;;;;;;-0.88;96.57;100806.13;6094266;23;20091;-82
2023/12/04 05:05:19;;;;;;;11.90;8.25;;;;;;;-0.90;96.30;100802.63;6117887;23;20477;-80
2023/12/04 05:07:46;;;;;;;12.60;7.25;;;;;;;-0.92;96.50;100796.56;6091994;23;20025;-80
2023/12/04 05:10:13;;;;;;;12.77;7.72;;;;;;;-0.95;95.39;100804.13;6121146;23;20022;-80
2023/12/04 05:12:39;;;;;;;12.82;6.55;;;;;;;-0.96;94.57;100799.81;6096336;23;20068;-80
2023/12/04 05:15:06;;;;;;;12.07;7.03;;;;;;;-0.91;94.63;100793.13;6097721;23;20026;-81
2023/12/04 05:17:33;;;;;;;15.90;7.45;;;;;;;-0.97;93.24;100795.50;6096283;23;20056;-82
2023/12/04 05:20:00;;;;;;;12.50;8.63;;;;;;;-0.93;92.54;100787.09;6121356;23;20111;-81
2023/12/04 05:22:26;;;;;;;12.77;7.70;;;;;;;-0.84;91.51;100798.59;6119635;23;20017;-81
2023/12/04 05:24:53;;;;;;;15.60;8.32;;;;;;;-0.83;91.18;100781.50;6119261;23;20052;-80
2023/12/04 05:27:21;;;;;;;11.93;6.45;;;;;;;-0.81;90.29;100784.97;6118645;23;20420;-82
2023/12/04 05:29:48;;;;;;;15.90;7.82;;;;;;;-0.77;90.45;100784.31;6119962;23;20037;-80
2023/12/04 05:32:16;;;;;;;11.88;7.03;;;;;;;-0.74;90.30;100773.28;6096640;23;20025;-80
2023/12/04 05:34:42;;;;;;;12.50;7.43;;;;;;;-0.79;88.42;100778.22;6095288;23;20061;-79
2023/12/04 05:37:08;;;;;;;11.90;6.68;;;;;;;-0.74;89.36;100775.84;6095729;23;20021;-79
2023/12/04 05:39:35;;;;;;;14.75;7.15;;;;;;;-0.75;88.79;100777.53;6122151;23;20352;-80
2023/12/04 05:42:02;;;;;;;12.63;7.70;;;;;;;-0.70;88.33;100765.72;6121698;23;20049;-80
2023/12/04 05:44:28;;;;;;;12.55;7.00;;;;;;;-0.71;88.42;100776.81;6120441;23;20029;-80
2023/12/04 05:46:55;;;;;;;18.45;8.27;;;;;;;-0.72;87.92;100769.06;6119367;23;20363;-79
2023/12/04 05:49:21;;;;;;;13.30;7.57;;;;;;;-0.64;87.88;100779.63;6111725;23;20025;-79
2023/12/04 05:51:48;;;;;;;11.50;7.50;;;;;;;-0.69;87.67;100769.19;6094995;23;20021;-80
2023/12/04 05:54:15;;;;;;;12.27;7.82;;;;;;;-0.69;87.44;100780.34;6097766;23;20033;-81
2023/12/04 05:56:42;;;;;;;15.13;8.40;;;;;;;-0.70;87.58;100772.56;6145359;23;20033;-81
2023/12/04 05:59:09;;;;;;;9.55;7.00;;;;;;;-0.69;87.90;100770.06;6123754;23;20040;-80
2023/12/04 06:01:35;;;;;;;15.45;7.85;;;;;;;-0.67;87.82;100765.81;6120826;23;20026;-80
2023/12/04 06:04:02;;;;;;;14.32;7.88;;;;;;;-0.71;87.63;100770.81;6122157;23;20021;-79
2023/12/04 06:06:28;;;;;;;15.63;8.40;;;;;;;-0.71;87.44;100758.81;6097011;23;20025;-80
2023/12/04 06:08:55;;;;;;;13.80;7.93;;;;;;;-0.63;87.39;100761.69;6123769;23;20029;-79
2023/12/04 06:11:22;;;;;;;13.23;8.27;;;;;;;-0.65;87.13;100752.16;6122164;23;20035;-80
2023/12/04 06:13:48;;;;;;;14.13;8.00;;;;;;;-0.65;86.60;100750.50;6096288;23;20124;-80
2023/12/04 06:16:15;;;;;;;11.80;7.10;;;;;;;-0.63;86.78;100747.97;6122323;23;20030;-79
2023/12/04 06:18:42;;;;;;;10.98;6.88;;;;;;;-0.66;86.91;100743.59;6122561;23;20022;-80
2023/12/04 06:21:10;;;;;;;13.35;7.82;;;;;;;-0.71;86.97;100743.41;6097628;23;20112;-80
2023/12/04 06:23:37;;;;;;;14.95;7.43;;;;;;;-0.72;86.49;100743.34;6120866;23;20021;-81
2023/12/04 06:26:04;;;;;;;12.23;7.85;;;;;;;-0.79;86.96;100739.66;6098120;23;20025;-79
2023/12/04 06:28:32;;;;;;;16.52;8.55;;;;;;;-0.72;87.36;100741.66;6099044;23;20036;-80
2023/12/04 06:31:00;;;;;;;14.48;8.98;;;;;;;-0.66;87.32;100741.00;6123307;23;20025;-80
2023/12/04 06:33:27;;;;;;;13.63;7.80;;;;;;;-0.72;87.17;100735.63;6123126;23;20013;-80
2023/12/04 06:35:54;;;;;;;15.57;7.53;;;;;;;-0.74;86.62;100743.28;6124335;23;20072;-81
2023/12/04 06:38:25;;;;;;;13.63;8.25;;;;;;;-0.78;87.37;100749.13;6098876;23;20415;-80
2023/12/04 06:40:52;;;;;;;12.52;7.68;;;;;;;-0.74;87.92;100747.56;6097265;23;20041;-80
2023/12/04 06:43:19;;;;;;;14.40;7.85;;;;;;;-0.79;87.21;100744.81;6121748;23;20362;-80
2023/12/04 06:45:47;;;;;;;13.10;8.18;;;;;;;-0.80;87.75;100742.19;6099030;23;20064;-79
2023/12/04 06:48:15;;;;;;;12.68;7.47;;;;;;;-0.79;87.25;100737.09;6099462;23;20587;-81
2023/12/04 06:50:41;;;;;;;14.30;8.73;;;;;;;-0.77;87.23;100739.72;6123266;23;20021;-80
2023/12/04 06:53:08;;;;;;;16.23;8.45;;;;;;;-0.74;87.03;100735.56;6099717;23;20025;-81
2023/12/04 06:55:35;;;;;;;14.48;8.32;;;;;;;-0.81;87.38;100737.84;6097285;23;20107;-80
2023/12/04 06:58:01;;;;;;;17.88;9.48;;;;;;;-0.72;87.66;100725.34;6098716;23;20025;-79
2023/12/04 07:00:28;;;;;;;17.42;9.25;;;;;;;-0.82;88.20;100730.94;6098188;23;20056;-82
2023/12/04 07:02:55;;;;;;;14.70;8.30;;;;;;;-0.76;88.19;100737.19;6121027;23;20640;-81
2023/12/04 07:05:21;;;;;;;17.95;10.00;;;;;;;-0.83;88.19;100732.66;6097768;23;20026;-80
2023/12/04 07:07:48;;;;;;;14.95;8.15;;;;;;;-0.84;87.93;100733.47;6098979;23;20076;-80
2023/12/04 07:10:15;;;;;;;14.13;8.23;;;;;;;-0.79;87.91;100733.66;6123893;23;20443;-80
2023/12/04 07:12:44;;;;;;;14.30;8.05;;;;;;;-0.77;88.16;100732.91;6146708;23;20052;-81
2023/12/04 07:15:12;;;;;;;19.85;9.52;;;;;;;-0.81;87.37;100743.00;6098990;23;20293;-80
2023/12/04 07:17:40;;;;;;;14.88;9.20;;;;;;;-0.81;88.32;100736.16;6097541;23;20021;-80
2023/12/04 07:20:08;;;;;;;14.02;8.68;;;;;;;-0.81;88.05;100743.00;6099563;23;20026;-80
2023/12/04 07:22:34;;;;;;;15.52;8.73;;;;;;;-0.72;87.84;100733.97;6098743;23;20014;-80
2023/12/04 07:25:01;;;;;;;17.13;8.60;;;;;;;-0.79;87.56;100738.81;6123254;23;20045;-80
2023/12/04 07:27:29;;;;;;;15.02;8.57;;;;;;;-0.77;87.41;100732.91;6121447;23;20033;-79
2023/12/04 07:29:55;;;;;;;15.88;9.30;;;;;;;-0.75;87.56;100738.09;6146927;23;20359;-79
2023/12/04 07:32:21;;;;;;;17.60;8.93;;;;;;;-0.71;87.88;100732.25;6097975;23;20060;-83
2023/12/04 07:34:48;;;;;;;17.05;9.27;;;;;;;-0.74;87.31;100735.56;6098167;23;20028;-82
2023/12/04 07:37:15;;;;;;;17.60;9.15;;;;;;;-0.69;87.44;100731.50;6121838;23;20025;-81
2023/12/04 07:39:43;;;;;;;14.15;8.15;;;;;;;-0.69;87.00;100730.63;6146678;23;20029;-80
2023/12/04 07:42:09;;;;;;;13.35;8.23;;;;;;;-0.69;87.08;100733.19;6123561;23;20399;-83
2023/12/04 07:44:36;;;;;;;15.70;9.32;;;;;;;-0.68;86.93;100740.97;6123514;23;20403;-80
2023/12/04 07:47:03;;;;;;;15.30;8.02;;;;;;;-0.67;87.00;100734.97;6122967;23;20736;-81
2023/12/04 07:49:29;;;;;;;14.30;9.02;;;;;;;-0.68;87.03;100728.09;6123151;23;20108;-81
2023/12/04 07:51:56;;;;;;;14.65;8.98;;;;;;;-0.67;86.74;100734.97;6146758;23;20032;-80
2023/12/04 07:54:25;;;;;;;15.63;8.45;;;;;;;-0.65;86.16;100723.88;6089229;23;20036;-80
2023/12/04 07:56:53;;;;;;;13.30;8.02;;;;;;;-0.62;86.54;100727.44;6124468;23;20053;-80
2023/12/04 07:59:20;;;;;;;13.52;8.88;;;;;;;-0.64;86.49;100729.06;6099684;23;20516;-80
2023/12/04 08:01:49;;;;;;;14.13;8.30;;;;;;;-0.64;86.39;100718.78;6098755;23;20131;-80
2023/12/04 08:04:15;;;;;;;15.40;9.27;;;;;;;-0.62;86.31;100730.03;6117513;23;20110;-81
2023/12/04 08:06:44;;;;;;;18.85;11.25;;;;;;;-0.57;87.01;100722.50;6093002;23;20018;-81
2023/12/04 08:09:11;;;;;;;15.05;7.45;;;;;;;-0.48;86.92;100721.94;6092978;23;20029;-81
2023/12/04 08:11:39;;;;;;;16.25;8.48;;;;;;;-0.49;86.86;100730.50;6091168;23;20029;-80
2023/12/04 08:14:07;;;;;;;14.38;8.73;;;;;;;-0.58;87.64;100731.88;6091543;23;20025;-81
2023/12/04 08:16:34;;;;;;;13.63;8.70;;;;;;;-0.72;88.94;100727.91;6091571;23;20530;-82
2023/12/04 08:19:00;;;;;;;16.00;9.30;;;;;;;-0.73;91.18;100721.91;6118987;23;20482;-82
2023/12/04 08:21:27;;;;;;;16.40;9.02;;;;;;;-0.77;92.39;100724.28;6070078;23;20025;-81
2023/12/04 08:23:53;;;;;;;18.45;10.93;;;;;;;-0.90;93.76;100715.22;6069448;23;20196;-82
2023/12/04 08:26:25;;;;;;;17.52;10.60;;;;;;;-0.89;94.14;100714.44;6095791;23;20026;-81
2023/12/04 08:28:53;;;;;;;18.90;8.93;;;;;;;-0.95;93.79;100716.75;6073384;23;20053;-82
2023/12/04 08:31:20;;;;;;;14.55;8.32;;;;;;;-0.96;95.82;100708.19;6097896;23;20018;-80
2023/12/04 08:33:46;;;;;;;17.58;9.88;;;;;;;-0.98;95.63;100714.94;6097570;23;20014;-81
2023/12/04 08:36:15;;;;;;;15.43;8.73;;;;;;;-0.92;96.77;100717.75;6099181;23;20029;-81
2023/12/04 08:38:44;;;;;;;12.65;8.57;;;;;;;-1.00;95.73;100708.88;6123005;23;20053;-81
2023/12/04 08:41:10;;;;;;;16.15;8.60;;;;;;;-0.87;95.67;100707.66;6075324;23;20448;-81
2023/12/04 08:43:37;;;;;;;17.25;9.02;;;;;;;-0.84;94.21;100703.50;6097480;23;20053;-81
2023/12/04 08:46:04;;;;;;;16.38;8.35;;;;;;;-0.81;92.92;100709.59;6097705;23;20048;-81
2023/12/04 08:48:31;;;;;;;15.40;9.50;;;;;;;-0.76;90.91;100713.19;6097421;23;20029;-81
2023/12/04 08:50:58;;;;;;;16.50;9.15;;;;;;;-0.70;89.74;100710.88;6074386;23;20571;-82
2023/12/04 08:53:25;;;;;;;15.25;8.63;;;;;;;-0.64;88.33;100710.22;6074249;23;20022;-80
2023/12/04 08:55:52;;;;;;;15.50;9.52;;;;;;;-0.60;87.56;100701.78;6095257;23;20036;-81
2023/12/04 08:58:24;;;;;;;14.32;8.43;;;;;;;-0.52;86.54;100708.97;6073961;23;20025;-82
2023/12/04 09:00:51;;;;;;;11.45;8.40;;;;;;;-0.48;86.03;100693.66;6095885;23;20025;-80
2023/12/04 09:03:19;;;;;;;13.27;8.52;;;;;;;-0.41;85.30;100695.63;6071495;23;20097;-82
2023/12/04 09:05:45;;;;;;;13.15;7.32;;;;;;;-0.30;84.10;100693.44;6100738;23;20036;-80
2023/12/04 09:08:12;;;;;;;14.23;8.45;;;;;;;-0.29;82.89;100688.34;6101221;23;20079;-80
2023/12/04 09:10:39;;;;;;;14.48;6.80;;;;;;;-0.26;82.20;100683.34;6101273;23;20406;-80
2023/12/04 09:13:05;;;;;;;13.25;7.43;;;;;;;-0.18;81.29;100678.47;6126310;23;20017;-81
2023/12/04 09:15:32;;;;;;;11.23;7.40;;;;;;;-0.11;81.30;100679.53;6102752;23;20025;-81
2023/12/04 09:17:59;;;;;;;17.08;7.75;;;;;;;-0.06;79.84;100689.16;6127653;23;20057;-81
2023/12/04 09:20:26;;;;;;;11.32;7.50;;;;;;;-0.04;79.76;100684.97;6151187;23;20029;-80
2023/12/04 09:22:52;;;;;;;15.57;8.13;;;;;;;-0.11;79.24;100680.41;6151732;23;20044;-80
2023/12/04 09:25:19;;;;;;;14.07;8.15;;;;;;;-0.07;79.38;100678.81;6104706;23;20666;-81
2023/12/04 09:27:46;;;;;;;13.77;7.65;;;;;;;0.03;79.25;100674.84;6128809;23;20111;-81
2023/12/04 09:30:13;;;;;;;12.65;7.40;;;;;;;0.00;78.40;100670.50;6103899;23;20101;-82
2023/12/04 09:32:40;;;;;;;15.57;7.20;;;;;;;0.08;78.37;100673.31;6103127;23;20017;-81
2023/12/04 09:35:09;;;;;;;13.43;6.97;;;;;;;0.13;78.19;100676.91;6104663;23;20427;-81
2023/12/04 09:37:36;;;;;;;12.63;8.02;;;;;;;0.27;78.35;100672.25;6127923;23;20083;-79
2023/12/04 09:40:03;;;;;;;12.15;8.35;;;;;;;0.26;76.87;100666.22;6103609;23;20018;-81
2023/12/04 09:42:34;;;;;;;13.27;7.78;;;;;;;0.31;77.23;100661.22;6128608;23;20530;-80
2023/12/04 09:45:01;;;;;;;14.60;7.95;;;;;;;0.37;77.86;100661.44;6129331;23;20104;-81
2023/12/04 09:47:31;;;;;;;14.02;7.22;;;;;;;0.43;78.07;100663.31;6129283;23;20044;-82
2023/12/04 09:49:58;;;;;;;13.10;7.10;;;;;;;0.42;77.79;100666.75;6154157;23;20031;-81
2023/12/04 09:52:25;;;;;;;13.23;8.00;;;;;;;0.43;77.97;100659.06;6130153;23;20384;-82
2023/12/04 09:54:52;;;;;;;11.60;6.82;;;;;;;0.35;77.27;100660.50;6105347;23;20443;-82
2023/12/04 09:57:18;;;;;;;13.63;6.72;;;;;;;0.38;77.06;100652.88;6129511;23;20048;-81
2023/12/04 09:59:48;;;;;;;10.45;6.95;;;;;;;0.48;76.70;100644.63;6104281;23;20026;-82
2023/12/04 10:02:15;;;;;;;12.80;7.80;;;;;;;0.53;75.72;100655.06;6130131;23;20017;-82
2023/12/04 10:04:43;;;;;;;10.15;6.65;;;;;;;0.61;76.15;100638.16;6103995;23;20029;-82
2023/12/04 10:07:10;;;;;;;11.73;7.03;;;;;;;0.68;77.03;100646.06;6128747;23;20108;-82
2023/12/04 10:09:36;;;;;;;15.10;8.23;;;;;;;0.63;76.22;100644.22;6102947;23;20036;-81
2023/12/04 10:12:04;;;;;;;9.50;6.35;;;;;;;0.66;76.29;100638.28;6128088;23;20100;-82
2023/12/04 10:14:32;;;;;;;10.95;8.05;;;;;;;0.68;76.66;100628.03;6127832;23;20021;-81
2023/12/04 10:16:59;;;;;;;9.68;6.72;;;;;;;0.71;76.42;100635.88;6103786;23;20025;-82
2023/12/04 10:19:30;;;;;;;9.55;6.85;;;;;;;0.70;76.66;100634.13;6128853;23;20023;-81
2023/12/04 10:21:59;;;;;;;13.13;7.43;;;;;;;0.63;76.47;100615.88;6129325;23;20037;-82
2023/12/04 10:24:35;;;;;;;12.45;7.47;;;;;;;0.64;76.49;100617.63;6103695;23;20036;-81
2023/12/04 10:27:08;;;;;;;8.73;6.10;;;;;;;0.63;76.30;100613.31;6104564;23;20104;-80
2023/12/04 10:29:52;;;;;;;11.95;7.57;;;;;;;0.55;74.67;100609.63;6103280;23;20021;-80
2023/12/04 10:32:22;;;;;;;11.73;7.40;;;;;;;0.67;74.40;100608.28;6128536;23;20072;-81
2023/12/04 10:34:49;;;;;;;10.23;7.07;;;;;;;0.72;74.50;100604.09;6103137;23;20383;-81
2023/12/04 10:37:15;;;;;;;12.52;7.45;;;;;;;0.67;73.02;100601.41;6127265;23;20029;-81
2023/12/04 10:39:51;;;;;;;10.88;6.50;;;;;;;0.67;72.70;100597.97;6151870;23;20052;-81
2023/12/04 10:42:30;;;;;;;16.25;7.55;;;;;;;0.69;73.64;100592.00;6127636;23;20029;-83
2023/12/04 10:44:58;;;;;;;10.80;6.93;;;;;;;0.76;73.64;100593.09;6102733;23;20029;-83
2023/12/04 10:47:24;;;;;;;10.48;5.95;;;;;;;0.82;73.62;100588.97;6127271;23;20339;-83
2023/12/04 10:49:52;;;;;;;10.10;5.97;;;;;;;0.79;73.52;100585.44;6101861;23;20025;-82
2023/12/04 10:52:20;;;;;;;8.88;5.93;;;;;;;0.71;73.38;100579.19;6129346;23;20021;-82
2023/12/04 10:54:50;;;;;;;11.02;6.53;;;;;;;0.75;73.84;100581.03;6102220;23;20320;-83
2023/12/04 10:57:29;;;;;;;11.95;7.55;;;;;;;0.73;73.46;100577.50;6103564;23;20049;-82
2023/12/04 10:59:59;;;;;;;8.98;5.75;;;;;;;0.74;73.47;100580.13;6103327;23;20112;-80
2023/12/04 11:02:27;;;;;;;9.27;6.38;;;;;;;0.78;73.46;100575.94;6126849;23;20036;-81
2023/12/04 11:05:07;;;;;;;9.48;5.95;;;;;;;0.75;73.12;100575.88;6126565;23;20021;-83
2023/12/04 11:07:38;;;;;;;10.60;6.80;;;;;;;0.65;73.40;100573.03;6127949;23;20359;-82
2023/12/04 11:10:10;;;;;;;9.40;6.25;;;;;;;0.75;73.60;100569.00;6105001;23;20170;-81
2023/12/04 11:12:45;;;;;;;11.02;7.00;;;;;;;0.80;73.67;100569.16;6105165;23;20475;-81
2023/12/04 11:15:17;;;;;;;10.68;7.15;;;;;;;0.70;73.01;100561.97;6105168;23;20327;-80